Time;durP1;ratioP1;P1;durP2;ratioP2;P2;SDS_P1;SDS_P2;PMS_P1;PMS_P2;Temp;Humidity;BMP_temperature;BMP_pressure;BME280_temperature;BME280_humidity;BME280_pressure;Samples;Min_cycle;Max_cycle;Signal;HPM_P1;HPM_P2
2024/02/16 05:01:13;;;;;;;2.55;2.35;;;10.40;99.90;;;;;;5498207;23;20593;-72
2024/02/16 05:03:41;;;;;;;2.40;2.15;;;10.30;99.90;;;;;;4912651;29;20714;-72
2024/02/16 05:06:08;;;;;;;2.42;2.25;;;10.30;99.90;;;;;;4915046;29;20209;-72
2024/02/16 05:08:34;;;;;;;2.33;2.20;;;10.30;99.90;;;;;;4917740;29;20213;-72
2024/02/16 05:11:02;;;;;;;3.05;2.25;;;10.30;99.90;;;;;;4919235;29;20238;-72
2024/02/16 05:13:28;;;;;;;7.47;2.30;;;10.30;99.90;;;;;;4917687;29;20352;-72
2024/02/16 05:15:55;;;;;;;5.45;1.90;;;10.30;99.90;;;;;;4920050;29;20206;-70
2024/02/16 05:18:24;;;;;;;2.17;2.08;;;10.30;99.90;;;;;;4919184;29;20221;-71
2024/02/16 05:20:51;;;;;;;2.58;2.45;;;10.30;99.90;;;;;;4913004;29;20612;-71
2024/02/16 05:23:18;;;;;;;2.20;2.03;;;10.20;99.90;;;;;;4920347;29;20228;-71
2024/02/16 05:25:45;;;;;;;1.85;1.83;;;10.30;99.90;;;;;;4919117;29;20210;-71
2024/02/16 05:28:12;;;;;;;3.38;2.20;;;10.30;99.90;;;;;;4919338;29;20237;-71
2024/02/16 05:30:39;;;;;;;2.30;2.20;;;10.30;99.90;;;;;;4920029;29;20676;-72
2024/02/16 05:33:05;;;;;;;2.13;1.95;;;10.30;99.90;;;;;;4917298;29;20213;-72
2024/02/16 05:35:33;;;;;;;2.38;2.28;;;10.40;99.90;;;;;;4918094;29;20221;-72
2024/02/16 05:38:06;;;;;;;3.17;2.70;;;10.30;99.90;;;;;;4917346;29;20214;-72
2024/02/16 05:40:45;;;;;;;3.75;2.30;;;10.30;99.90;;;;;;4914602;29;20228;-73
2024/02/16 05:43:12;;;;;;;2.53;2.42;;;10.30;99.90;;;;;;4917025;29;20215;-73
2024/02/16 05:45:41;;;;;;;2.55;2.40;;;10.30;99.90;;;;;;4915918;29;20218;-72
2024/02/16 05:48:10;;;;;;;2.75;2.25;;;10.30;99.90;;;;;;4914159;29;20219;-71
2024/02/16 05:50:38;;;;;;;2.15;2.15;;;10.30;99.90;;;;;;4914407;29;20298;-72
2024/02/16 05:53:05;;;;;;;2.80;2.63;;;10.30;99.90;;;;;;4917936;29;20724;-74
2024/02/16 05:55:31;;;;;;;2.50;2.40;;;10.30;99.90;;;;;;4918453;29;20218;-73
2024/02/16 05:57:58;;;;;;;2.13;2.00;;;10.30;99.90;;;;;;4918091;29;20218;-73
2024/02/16 06:00:26;;;;;;;2.53;2.42;;;10.30;99.90;;;;;;4915324;29;20235;-72
2024/02/16 06:02:54;;;;;;;2.13;2.03;;;10.30;99.90;;;;;;4913567;29;20210;-72
2024/02/16 06:05:21;;;;;;;1.77;1.67;;;10.40;99.90;;;;;;4918469;29;20275;-72
2024/02/16 06:07:49;;;;;;;3.33;2.60;;;10.40;99.90;;;;;;4918553;29;20218;-72
2024/02/16 06:10:16;;;;;;;2.15;2.05;;;10.50;99.90;;;;;;4914001;29;20209;-72
2024/02/16 06:12:42;;;;;;;2.35;2.22;;;10.50;99.90;;;;;;4916982;29;20229;-72
2024/02/16 06:15:09;;;;;;;2.30;2.10;;;10.40;99.90;;;;;;4916249;29;20217;-72
2024/02/16 06:17:36;;;;;;;4.65;2.50;;;10.40;99.90;;;;;;4913696;29;20298;-72
2024/02/16 06:20:05;;;;;;;2.03;1.92;;;10.40;99.90;;;;;;4913879;29;20318;-72
2024/02/16 06:22:32;;;;;;;2.60;2.40;;;10.30;99.90;;;;;;4912515;29;20223;-71
2024/02/16 06:25:00;;;;;;;3.47;3.10;;;10.40;99.90;;;;;;4915094;29;20237;-72
2024/02/16 06:27:27;;;;;;;2.80;2.63;;;10.40;99.90;;;;;;4915459;29;20286;-71
2024/02/16 06:29:53;;;;;;;3.80;2.53;;;10.40;99.90;;;;;;4913973;29;20281;-71
2024/02/16 06:32:20;;;;;;;1.77;1.67;;;10.50;99.90;;;;;;4915823;29;20351;-71
2024/02/16 06:34:47;;;;;;;2.53;2.00;;;10.50;99.90;;;;;;4917501;29;20217;-71
2024/02/16 06:37:14;;;;;;;2.10;2.00;;;10.50;99.90;;;;;;4915681;29;20581;-71
2024/02/16 06:39:40;;;;;;;9.60;2.22;;;10.50;99.90;;;;;;4910694;29;20211;-71
2024/02/16 06:42:12;;;;;;;2.13;2.03;;;10.50;99.90;;;;;;4914736;29;20253;-71
2024/02/16 06:44:38;;;;;;;2.45;2.35;;;10.50;99.90;;;;;;4912505;29;20618;-71
2024/02/16 06:47:05;;;;;;;1.95;1.85;;;10.50;99.90;;;;;;4914299;29;20674;-71
2024/02/16 06:49:32;;;;;;;3.03;2.72;;;10.40;99.90;;;;;;4919012;29;20205;-71
2024/02/16 06:51:59;;;;;;;4.50;2.70;;;10.50;99.90;;;;;;4918204;29;20264;-71
2024/02/16 06:54:26;;;;;;;3.15;2.63;;;10.50;99.90;;;;;;4918635;29;20246;-72
2024/02/16 06:56:53;;;;;;;2.95;2.05;;;10.50;99.90;;;;;;4913122;29;20266;-71
2024/02/16 06:59:21;;;;;;;2.83;2.60;;;10.50;99.90;;;;;;4913152;29;20205;-71
2024/02/16 07:01:48;;;;;;;1.60;1.50;;;10.50;99.90;;;;;;4911903;29;20264;-71
2024/02/16 07:04:14;;;;;;;2.80;2.60;;;10.50;99.90;;;;;;4914201;29;20228;-71
2024/02/16 07:06:41;;;;;;;3.72;2.60;;;10.50;99.90;;;;;;4914987;29;20596;-71
2024/02/16 07:09:08;;;;;;;2.35;2.15;;;10.40;99.90;;;;;;4914564;29;20204;-71
2024/02/16 07:11:35;;;;;;;2.60;2.40;;;10.40;99.90;;;;;;4913760;29;20238;-71
2024/02/16 07:14:03;;;;;;;1.63;1.63;;;10.40;99.90;;;;;;4913918;29;20617;-71
2024/02/16 07:16:32;;;;;;;4.50;2.20;;;10.40;99.90;;;;;;4906613;29;20321;-71
2024/02/16 07:18:59;;;;;;;2.05;2.03;;;10.40;99.90;;;;;;4911757;29;20205;-71
2024/02/16 07:21:25;;;;;;;2.20;2.10;;;10.40;99.90;;;;;;4912023;29;20260;-71
2024/02/16 07:23:53;;;;;;;2.03;1.92;;;10.40;99.90;;;;;;4913439;29;20304;-71
2024/02/16 07:26:20;;;;;;;2.30;2.20;;;10.50;99.90;;;;;;4912919;29;20221;-71
2024/02/16 07:28:46;;;;;;;2.60;2.40;;;10.50;99.90;;;;;;4913907;29;20222;-71
2024/02/16 07:31:14;;;;;;;6.55;4.57;;;10.50;99.90;;;;;;4912933;29;20696;-73
2024/02/16 07:33:42;;;;;;;5.03;4.53;;;10.50;99.90;;;;;;4912621;29;20618;-72
2024/02/16 07:36:09;;;;;;;10.75;7.10;;;10.60;99.90;;;;;;4913033;29;20214;-71
2024/02/16 07:38:36;;;;;;;7.60;4.03;;;10.60;99.90;;;;;;4913541;29;20226;-70
2024/02/16 07:41:04;;;;;;;6.57;4.18;;;10.60;99.90;;;;;;4913271;29;20359;-70
2024/02/16 07:43:31;;;;;;;2.20;2.03;;;10.60;99.90;;;;;;4909518;29;20210;-71
2024/02/16 07:45:58;;;;;;;6.93;6.20;;;10.70;99.90;;;;;;4913682;29;20769;-70
2024/02/16 07:48:24;;;;;;;2.00;1.90;;;10.70;99.90;;;;;;4911650;29;20217;-72
2024/02/16 07:50:52;;;;;;;3.33;2.95;;;10.70;99.90;;;;;;4911689;29;20593;-71
2024/02/16 07:53:19;;;;;;;9.88;6.18;;;10.70;99.90;;;;;;4909847;29;20700;-71
2024/02/16 07:55:46;;;;;;;3.47;3.20;;;10.70;99.90;;;;;;4910097;29;20590;-71
2024/02/16 07:58:13;;;;;;;3.15;2.95;;;10.70;99.90;;;;;;4909160;29;20273;-71
2024/02/16 08:00:40;;;;;;;9.15;8.10;;;10.70;99.90;;;;;;4910855;29;20312;-71
2024/02/16 08:03:06;;;;;;;7.05;5.30;;;10.70;99.90;;;;;;4914976;29;20210;-71
2024/02/16 08:05:33;;;;;;;14.88;9.73;;;10.70;99.90;;;;;;4907981;29;20211;-72
2024/02/16 08:08:01;;;;;;;6.50;6.10;;;10.80;99.90;;;;;;4911190;29;20206;-71
2024/02/16 08:10:28;;;;;;;6.30;4.17;;;10.80;99.90;;;;;;4908541;29;20213;-71
2024/02/16 08:12:55;;;;;;;3.33;3.00;;;10.80;99.90;;;;;;4910950;29;20495;-71
2024/02/16 08:15:23;;;;;;;2.67;2.60;;;10.90;99.90;;;;;;4912735;29;20462;-71
2024/02/16 08:17:51;;;;;;;2.15;2.15;;;10.90;99.90;;;;;;4912133;29;20562;-71
2024/02/16 08:20:18;;;;;;;2.00;1.90;;;11.20;99.90;;;;;;4911445;29;20230;-71
2024/02/16 08:22:44;;;;;;;2.40;2.30;;;11.40;99.90;;;;;;4912117;29;20467;-71
2024/02/16 08:25:12;;;;;;;2.33;1.63;;;11.40;99.90;;;;;;4910911;29;20474;-71
2024/02/16 08:27:39;;;;;;;1.77;1.73;;;11.50;99.90;;;;;;4909713;29;20838;-71
2024/02/16 08:30:08;;;;;;;1.43;1.43;;;11.60;99.90;;;;;;4907207;29;20497;-70
2024/02/16 08:32:35;;;;;;;1.40;1.30;;;11.60;99.90;;;;;;4912369;29;20482;-70
2024/02/16 08:35:03;;;;;;;1.57;1.57;;;11.60;99.90;;;;;;4907178;29;20479;-70
2024/02/16 08:37:29;;;;;;;1.73;1.43;;;11.60;99.90;;;;;;4913152;29;20474;-73
2024/02/16 08:39:56;;;;;;;2.17;2.13;;;11.60;99.90;;;;;;4910516;29;20498;-71
2024/02/16 08:42:24;;;;;;;2.43;2.23;;;11.60;99.90;;;;;;4911416;29;20494;-71
2024/02/16 08:44:51;;;;;;;1.50;1.50;;;11.60;99.90;;;;;;4909822;29;20483;-71
2024/02/16 08:47:18;;;;;;;2.53;2.33;;;11.60;99.90;;;;;;4913149;29;20479;-71
2024/02/16 08:49:45;;;;;;;1.77;1.67;;;11.70;99.90;;;;;;4913180;29;20601;-72
2024/02/16 08:52:11;;;;;;;4.30;4.00;;;11.70;99.90;;;;;;4913760;29;20503;-71
2024/02/16 08:54:38;;;;;;;2.30;1.73;;;11.80;99.90;;;;;;4913073;29;20483;-70
2024/02/16 08:57:05;;;;;;;1.47;1.20;;;11.80;99.90;;;;;;4910048;29;20469;-71
2024/02/16 08:59:34;;;;;;;1.50;1.50;;;11.80;99.90;;;;;;4912996;29;20474;-71
2024/02/16 09:02:01;;;;;;;1.57;1.57;;;11.90;99.90;;;;;;4911652;29;20556;-72
2024/02/16 09:04:27;;;;;;;1.53;1.50;;;11.90;99.90;;;;;;4913263;29;20475;-72
2024/02/16 09:06:54;;;;;;;2.97;1.90;;;12.00;99.90;;;;;;4908717;29;20480;-72
2024/02/16 09:09:21;;;;;;;1.50;1.40;;;12.10;99.90;;;;;;4912773;29;20487;-71
2024/02/16 09:11:48;;;;;;;1.50;1.50;;;12.20;99.90;;;;;;4914399;29;20536;-72
2024/02/16 09:14:14;;;;;;;1.40;1.37;;;12.20;99.90;;;;;;4912151;29;20477;-71
2024/02/16 09:16:42;;;;;;;1.30;1.30;;;12.30;99.90;;;;;;4912657;29;20472;-72
2024/02/16 09:19:09;;;;;;;2.40;1.63;;;12.30;99.90;;;;;;4913415;29;20951;-71
2024/02/16 09:21:36;;;;;;;1.13;1.13;;;12.40;99.90;;;;;;4915120;29;20495;-70
2024/02/16 09:24:04;;;;;;;1.80;1.67;;;12.40;99.90;;;;;;4915760;29;20583;-72
2024/02/16 09:26:33;;;;;;;2.27;2.03;;;12.40;99.90;;;;;;4913156;29;20472;-72
2024/02/16 09:28:59;;;;;;;1.33;1.33;;;12.50;99.90;;;;;;4914830;29;20507;-72
2024/02/16 09:31:26;;;;;;;2.53;1.20;;;12.60;99.90;;;;;;4917463;29;20505;-71
2024/02/16 09:33:54;;;;;;;1.30;1.30;;;12.80;99.90;;;;;;4917113;29;20522;-72
2024/02/16 09:36:23;;;;;;;1.87;1.80;;;12.90;99.90;;;;;;4915383;29;20881;-72
2024/02/16 09:38:50;;;;;;;1.53;1.53;;;13.00;99.90;;;;;;4917258;29;20508;-71
2024/02/16 09:41:17;;;;;;;2.17;2.07;;;13.10;99.90;;;;;;4912761;29;20555;-71
2024/02/16 09:43:44;;;;;;;7.63;3.90;;;13.20;99.90;;;;;;4915086;29;20482;-71
2024/02/16 09:46:10;;;;;;;6.60;5.10;;;13.20;99.90;;;;;;4917643;29;20581;-71
2024/02/16 09:48:40;;;;;;;3.43;3.17;;;13.30;99.90;;;;;;4915734;29;20470;-71
2024/02/16 09:51:09;;;;;;;3.60;3.40;;;13.40;99.90;;;;;;4915691;29;20500;-72
2024/02/16 09:53:36;;;;;;;2.03;1.93;;;13.60;99.90;;;;;;4912395;29;20497;-71
2024/02/16 09:56:05;;;;;;;5.43;5.07;;;13.50;99.90;;;;;;4918025;29;21033;-71
2024/02/16 09:58:32;;;;;;;3.97;3.63;;;13.60;99.90;;;;;;4912875;29;21013;-72
2024/02/16 10:00:59;;;;;;;8.70;6.50;;;13.70;99.90;;;;;;4915046;29;20833;-72
2024/02/16 10:03:27;;;;;;;17.70;11.93;;;13.70;99.90;;;;;;4918608;29;20473;-71
2024/02/16 10:06:04;;;;;;;6.50;4.70;;;13.80;99.90;;;;;;4918749;29;20570;-73
2024/02/16 10:08:32;;;;;;;9.77;8.50;;;13.80;99.90;;;;;;4917712;29;20470;-71
2024/02/16 10:11:03;;;;;;;3.07;2.87;;;13.90;99.90;;;;;;4914400;29;21084;-71
2024/02/16 10:13:30;;;;;;;2.93;2.80;;;14.00;99.90;;;;;;4913306;29;20494;-71
2024/02/16 10:16:08;;;;;;;2.40;2.30;;;14.00;99.90;;;;;;4916117;29;20466;-72
2024/02/16 10:18:35;;;;;;;1.83;1.73;;;14.10;99.90;;;;;;4910566;29;20521;-75
2024/02/16 10:21:01;;;;;;;2.70;2.50;;;14.10;99.90;;;;;;4915443;29;20497;-75
2024/02/16 10:23:28;;;;;;;2.83;2.53;;;14.20;99.90;;;;;;4912136;29;20473;-73
2024/02/16 10:25:56;;;;;;;2.50;2.40;;;14.20;99.90;;;;;;4917824;29;20469;-74
2024/02/16 10:28:27;;;;;;;3.30;3.00;;;14.30;99.90;;;;;;4914658;29;20466;-72
2024/02/16 10:30:59;;;;;;;2.07;1.97;;;14.20;99.90;;;;;;4914489;29;20494;-71
2024/02/16 10:33:27;;;;;;;1.43;1.43;;;14.20;99.90;;;;;;4914846;29;20801;-72
2024/02/16 10:35:56;;;;;;;1.40;1.40;;;14.10;99.90;;;;;;4912704;29;20471;-76
2024/02/16 10:38:23;;;;;;;3.47;2.00;;;14.10;99.90;;;;;;4914728;29;20470;-76
2024/02/16 10:40:52;;;;;;;1.80;1.70;;;14.20;99.90;;;;;;4913718;29;20490;-75
2024/02/16 10:43:22;;;;;;;2.73;2.53;;;14.10;99.90;;;;;;4915089;29;20462;-72
2024/02/16 10:45:52;;;;;;;2.30;2.10;;;14.20;99.90;;;;;;4914613;29;20918;-72
2024/02/16 10:48:19;;;;;;;2.00;1.90;;;14.30;99.90;;;;;;4913604;29;20467;-72
2024/02/16 10:50:50;;;;;;;1.10;1.10;;;14.40;99.90;;;;;;4913389;29;20497;-73
2024/02/16 10:53:23;;;;;;;0.80;0.80;;;14.50;99.90;;;;;;4915269;29;20494;-72
2024/02/16 10:55:50;;;;;;;1.60;1.50;;;14.60;99.90;;;;;;4910214;29;20474;-72
2024/02/16 10:58:19;;;;;;;1.27;1.10;;;14.60;99.90;;;;;;4906987;29;20474;-72
2024/02/16 11:00:51;;;;;;;1.70;1.70;;;14.70;99.90;;;;;;4913570;29;20520;-70
2024/02/16 11:03:19;;;;;;;1.10;1.10;;;14.80;99.90;;;;;;4912049;29;20461;-70
2024/02/16 11:05:46;;;;;;;1.60;1.17;;;14.90;99.90;;;;;;4911654;29;20498;-69
2024/02/16 11:08:14;;;;;;;1.40;1.40;;;14.90;99.90;;;;;;4911774;29;20507;-70
2024/02/16 11:10:41;;;;;;;1.33;1.30;;;15.00;99.90;;;;;;4913613;29;20482;-70
2024/02/16 11:13:09;;;;;;;1.20;1.20;;;15.00;99.90;;;;;;4912533;29;20493;-70
2024/02/16 11:15:38;;;;;;;1.40;1.20;;;15.00;99.90;;;;;;4914427;29;20491;-71
2024/02/16 11:18:06;;;;;;;1.53;1.43;;;15.00;99.90;;;;;;4910923;29;20475;-70
2024/02/16 11:20:39;;;;;;;1.33;1.20;;;15.00;99.90;;;;;;4910047;29;20503;-68
2024/02/16 11:23:07;;;;;;;1.20;1.20;;;15.10;99.90;;;;;;4913169;29;20942;-70
2024/02/16 11:25:34;;;;;;;3.00;1.43;;;15.10;99.90;;;;;;4912188;29;20471;-69
2024/02/16 11:28:03;;;;;;;3.40;1.33;;;15.20;99.90;;;;;;4913556;29;20474;-69
2024/02/16 11:30:34;;;;;;;1.17;1.17;;;15.30;99.90;;;;;;4912911;29;20478;-70
2024/02/16 11:33:02;;;;;;;0.90;0.90;;;15.30;99.90;;;;;;4909588;29;20490;-70
2024/02/16 11:35:29;;;;;;;1.13;1.13;;;15.30;99.90;;;;;;4914282;29;20470;-70
2024/02/16 11:37:57;;;;;;;1.50;1.40;;;15.30;99.90;;;;;;4911009;29;20478;-70
2024/02/16 11:40:24;;;;;;;1.30;1.20;;;15.40;99.90;;;;;;4910313;29;20466;-70
2024/02/16 11:42:58;;;;;;;4.63;1.43;;;15.40;99.90;;;;;;4912861;29;20498;-70
2024/02/16 11:45:25;;;;;;;1.37;1.37;;;15.30;99.90;;;;;;4912338;29;20474;-70
2024/02/16 11:47:52;;;;;;;2.00;1.90;;;15.20;99.90;;;;;;4913090;29;20553;-70
2024/02/16 11:50:20;;;;;;;1.07;1.07;;;15.10;99.90;;;;;;4913165;29;20813;-70
2024/02/16 11:52:48;;;;;;;1.20;1.20;;;15.00;99.90;;;;;;4913333;29;20555;-71
2024/02/16 11:55:16;;;;;;;1.10;1.10;;;15.00;99.90;;;;;;4905434;29;20508;-70
2024/02/16 11:57:43;;;;;;;1.90;1.80;;;15.00;99.90;;;;;;4912757;29;20531;-70
2024/02/16 12:00:14;;;;;;;1.70;1.60;;;15.00;99.90;;;;;;4910171;29;20479;-70
2024/02/16 12:02:41;;;;;;;1.63;1.43;;;15.00;99.90;;;;;;4910871;29;20478;-71
2024/02/16 12:05:09;;;;;;;1.50;1.40;;;15.10;99.90;;;;;;4912939;29;20466;-70
2024/02/16 12:07:40;;;;;;;1.23;1.23;;;15.10;99.90;;;;;;4911952;29;20573;-71
2024/02/16 12:10:09;;;;;;;5.00;4.60;;;15.10;99.90;;;;;;4913115;29;20463;-72
2024/02/16 12:12:35;;;;;;;3.97;2.50;;;15.20;99.90;;;;;;4911450;29;20490;-70
2024/02/16 12:15:03;;;;;;;21.97;12.00;;;15.20;99.90;;;;;;4907655;29;20824;-71
2024/02/16 12:17:30;;;;;;;16.43;8.90;;;15.20;99.90;;;;;;4910124;29;20997;-70
2024/02/16 12:19:57;;;;;;;2.10;1.90;;;15.20;99.90;;;;;;4910660;29;20497;-70
2024/02/16 12:22:23;;;;;;;2.10;1.80;;;15.20;99.90;;;;;;4910240;29;20497;-70
2024/02/16 12:24:52;;;;;;;1.60;1.60;;;15.20;99.90;;;;;;4912895;29;20471;-70
2024/02/16 12:27:19;;;;;;;4.10;2.93;;;15.20;99.90;;;;;;4911754;29;20477;-70
2024/02/16 12:29:45;;;;;;;2.00;1.90;;;15.20;99.90;;;;;;4910833;29;20501;-71
2024/02/16 12:32:12;;;;;;;1.70;1.70;;;15.30;99.90;;;;;;4908695;29;20490;-71
2024/02/16 12:34:39;;;;;;;3.43;3.23;;;15.40;99.90;;;;;;4913385;29;20501;-71
2024/02/16 12:37:07;;;;;;;1.90;1.70;;;15.40;99.90;;;;;;4912411;29;20577;-70
2024/02/16 12:39:34;;;;;;;2.10;2.00;;;15.40;99.90;;;;;;4912813;29;20458;-71
2024/02/16 12:42:02;;;;;;;2.03;1.83;;;15.30;99.90;;;;;;4906862;29;20494;-71
2024/02/16 12:44:30;;;;;;;1.37;1.37;;;15.40;99.90;;;;;;4913377;29;20489;-71
2024/02/16 12:46:57;;;;;;;1.87;1.77;;;15.40;99.90;;;;;;4910576;29;20482;-71
2024/02/16 12:49:23;;;;;;;1.83;1.73;;;15.40;99.90;;;;;;4906024;29;20486;-70
2024/02/16 12:51:51;;;;;;;1.87;1.70;;;15.40;99.90;;;;;;4911959;29;20869;-70
2024/02/16 12:54:18;;;;;;;2.40;1.50;;;15.40;99.90;;;;;;4909658;29;20493;-70
2024/02/16 12:56:45;;;;;;;1.90;1.80;;;15.40;99.90;;;;;;4912602;29;21033;-71
2024/02/16 12:59:13;;;;;;;4.43;2.20;;;15.30;99.90;;;;;;4910999;29;20845;-70
2024/02/16 13:01:41;;;;;;;3.17;1.87;;;15.40;99.90;;;;;;4912904;29;20509;-71
2024/02/16 13:04:08;;;;;;;2.00;1.90;;;15.50;99.90;;;;;;4914683;29;20968;-70
2024/02/16 13:06:35;;;;;;;2.97;2.30;;;15.60;99.90;;;;;;4914545;29;20918;-70
2024/02/16 13:09:02;;;;;;;3.67;2.23;;;15.60;99.90;;;;;;4912351;29;20470;-68
2024/02/16 13:11:29;;;;;;;1.70;1.70;;;15.70;99.90;;;;;;4913870;29;20494;-70
2024/02/16 13:13:55;;;;;;;0.63;0.63;;;15.70;99.90;;;;;;4916183;29;20501;-70
2024/02/16 13:16:24;;;;;;;2.00;1.90;;;15.80;99.90;;;;;;4916461;29;20474;-70
2024/02/16 13:18:50;;;;;;;1.90;1.80;;;15.80;99.90;;;;;;4915665;29;20458;-70
2024/02/16 13:21:17;;;;;;;1.90;1.90;;;15.80;99.90;;;;;;4913458;29;21020;-70
2024/02/16 13:23:44;;;;;;;1.33;1.33;;;15.90;99.90;;;;;;4913296;29;20533;-69
2024/02/16 13:26:10;;;;;;;1.60;1.60;;;15.80;99.90;;;;;;4911162;29;20474;-70
2024/02/16 13:28:37;;;;;;;1.77;1.77;;;15.80;99.90;;;;;;4915945;29;20474;-69
2024/02/16 13:31:04;;;;;;;2.77;1.83;;;15.80;99.90;;;;;;4916172;29;20481;-69
2024/02/16 13:33:32;;;;;;;7.40;1.87;;;15.80;99.90;;;;;;4909619;29;20482;-68
2024/02/16 13:35:59;;;;;;;2.17;2.07;;;15.80;99.90;;;;;;4916242;29;20474;-69
2024/02/16 13:38:26;;;;;;;2.07;1.97;;;15.80;99.90;;;;;;4914258;29;20480;-69
2024/02/16 13:40:53;;;;;;;1.63;1.60;;;15.70;99.90;;;;;;4915739;29;20497;-69
2024/02/16 13:43:19;;;;;;;1.90;1.80;;;15.80;99.90;;;;;;4913343;29;20490;-70
2024/02/16 13:45:51;;;;;;;2.20;2.10;;;15.70;99.90;;;;;;4916465;29;20466;-68
2024/02/16 13:48:18;;;;;;;2.57;2.30;;;15.70;99.90;;;;;;4914981;29;20837;-69
2024/02/16 13:50:47;;;;;;;2.07;1.93;;;15.70;99.90;;;;;;4915839;29;20872;-69
2024/02/16 13:53:15;;;;;;;5.00;2.67;;;15.70;99.90;;;;;;4914261;29;20478;-69
2024/02/16 13:55:42;;;;;;;2.70;2.50;;;15.70;99.90;;;;;;4913923;29;20694;-70
2024/02/16 13:58:09;;;;;;;4.50;2.47;;;15.70;99.90;;;;;;4913416;29;20480;-70
2024/02/16 14:00:36;;;;;;;2.03;2.03;;;15.70;99.90;;;;;;4911587;29;21019;-70
2024/02/16 14:03:04;;;;;;;2.50;2.30;;;15.60;99.90;;;;;;4913952;29;20477;-69
2024/02/16 14:05:30;;;;;;;2.03;1.93;;;15.60;99.90;;;;;;4915743;29;20485;-69
2024/02/16 14:07:58;;;;;;;2.53;2.10;;;15.50;99.90;;;;;;4913768;29;20481;-70
2024/02/16 14:10:25;;;;;;;1.97;1.87;;;15.50;99.90;;;;;;4913503;29;20498;-70
2024/02/16 14:12:52;;;;;;;2.60;2.30;;;15.50;99.90;;;;;;4915582;29;20972;-68
2024/02/16 14:15:20;;;;;;;1.87;1.77;;;15.50;99.90;;;;;;4914079;29;20533;-68
2024/02/16 14:17:46;;;;;;;2.33;2.20;;;15.40;99.90;;;;;;4910440;29;20470;-70
2024/02/16 14:20:13;;;;;;;2.83;2.67;;;15.40;99.90;;;;;;4914665;29;20829;-70
2024/02/16 14:22:40;;;;;;;3.90;2.00;;;15.30;99.90;;;;;;4915489;29;20463;-70
2024/02/16 14:25:11;;;;;;;4.73;2.50;;;15.20;99.90;;;;;;4914022;29;20486;-70
2024/02/16 14:27:37;;;;;;;4.03;2.10;;;15.10;99.90;;;;;;4914932;29;20938;-70
2024/02/16 14:30:05;;;;;;;2.90;2.77;;;15.10;99.90;;;;;;4915062;29;20538;-70
2024/02/16 14:32:32;;;;;;;2.30;2.20;;;15.10;99.90;;;;;;4907269;29;20542;-70
2024/02/16 14:34:59;;;;;;;2.77;2.57;;;15.00;99.90;;;;;;4907457;29;21012;-70
2024/02/16 14:37:27;;;;;;;2.70;2.50;;;15.00;99.90;;;;;;4914564;29;20477;-69
2024/02/16 14:39:57;;;;;;;2.60;2.50;;;14.90;99.90;;;;;;4911389;29;20977;-68
2024/02/16 14:42:25;;;;;;;6.27;2.87;;;14.90;99.90;;;;;;4913634;29;20530;-69
2024/02/16 14:44:51;;;;;;;2.70;2.27;;;14.80;99.90;;;;;;4914860;29;20934;-69
2024/02/16 14:47:18;;;;;;;2.20;2.17;;;14.80;99.90;;;;;;4913669;29;20496;-69
2024/02/16 14:49:45;;;;;;;1.80;1.70;;;14.70;99.90;;;;;;4913692;29;20502;-69
2024/02/16 14:52:12;;;;;;;2.97;2.70;;;14.70;99.90;;;;;;4914800;29;20507;-70
2024/02/16 14:54:39;;;;;;;4.20;2.30;;;14.60;99.90;;;;;;4914829;29;20529;-70
2024/02/16 14:57:06;;;;;;;2.43;2.23;;;14.50;99.90;;;;;;4912757;29;20489;-70
2024/02/16 14:59:34;;;;;;;2.77;2.67;;;14.30;99.90;;;;;;4914049;29;20482;-69
2024/02/16 15:02:02;;;;;;;2.80;2.60;;;14.30;99.90;;;;;;4913033;29;20525;-69
2024/02/16 15:04:30;;;;;;;3.33;2.90;;;14.10;99.90;;;;;;4914235;29;20675;-69
2024/02/16 15:06:57;;;;;;;2.80;2.60;;;14.10;99.90;;;;;;4912385;29;20517;-69
2024/02/16 15:09:23;;;;;;;3.20;2.83;;;14.00;99.90;;;;;;4913816;29;20484;-69
2024/02/16 15:11:50;;;;;;;2.67;2.47;;;14.00;99.90;;;;;;4913548;29;20495;-69
2024/02/16 15:14:17;;;;;;;2.43;2.43;;;13.90;99.90;;;;;;4914025;29;20806;-70
2024/02/16 15:16:45;;;;;;;3.30;2.90;;;13.90;99.90;;;;;;4911528;29;20584;-70
2024/02/16 15:19:12;;;;;;;4.83;2.30;;;13.90;99.90;;;;;;4911301;29;20466;-70
2024/02/16 15:21:38;;;;;;;3.20;2.43;;;13.90;99.90;;;;;;4913454;29;20501;-70
2024/02/16 15:24:06;;;;;;;3.00;2.73;;;13.80;99.90;;;;;;4913866;29;20459;-69
2024/02/16 15:26:33;;;;;;;3.77;3.43;;;13.80;99.90;;;;;;4914092;29;20681;-70
2024/02/16 15:29:00;;;;;;;2.60;2.43;;;13.70;99.90;;;;;;4911927;29;20498;-69
2024/02/16 15:31:26;;;;;;;3.73;3.20;;;13.70;99.90;;;;;;4908903;29;21048;-70
2024/02/16 15:33:54;;;;;;;4.77;4.30;;;13.70;99.90;;;;;;4912827;29;20466;-70
2024/02/16 15:36:21;;;;;;;3.20;3.10;;;13.60;99.90;;;;;;4911990;29;20490;-69
2024/02/16 15:38:49;;;;;;;3.63;2.90;;;13.60;99.90;;;;;;4913590;29;20512;-70
2024/02/16 15:41:15;;;;;;;3.37;3.07;;;13.60;99.90;;;;;;4913192;29;20485;-70
2024/02/16 15:43:42;;;;;;;3.00;2.80;;;13.60;99.90;;;;;;4913249;29;20484;-69
2024/02/16 15:46:09;;;;;;;3.87;3.37;;;13.60;99.90;;;;;;4913514;29;20524;-70
2024/02/16 15:48:36;;;;;;;3.27;3.07;;;13.60;99.90;;;;;;4908869;29;20489;-69
2024/02/16 15:51:07;;;;;;;4.50;4.03;;;13.50;99.90;;;;;;4913347;29;20580;-70
2024/02/16 15:53:34;;;;;;;9.10;4.23;;;13.50;99.90;;;;;;4906370;29;20477;-69
2024/02/16 15:56:02;;;;;;;4.30;4.00;;;13.50;99.90;;;;;;4912343;29;20501;-70
2024/02/16 15:58:29;;;;;;;4.30;4.10;;;13.60;99.90;;;;;;4909365;29;20476;-70
2024/02/16 16:00:56;;;;;;;3.17;2.97;;;13.60;99.90;;;;;;4910342;29;20495;-70
2024/02/16 16:03:23;;;;;;;4.07;3.77;;;13.60;99.90;;;;;;4911226;29;20480;-68
2024/02/16 16:05:50;;;;;;;4.03;3.70;;;13.60;99.90;;;;;;4910778;29;20976;-68
2024/02/16 16:08:20;;;;;;;3.53;3.30;;;13.50;99.90;;;;;;4908018;29;20505;-67
2024/02/16 16:10:48;;;;;;;3.63;3.33;;;13.50;99.90;;;;;;4913257;29;20490;-67
2024/02/16 16:13:14;;;;;;;3.87;3.67;;;13.50;99.90;;;;;;4912795;29;20508;-67
2024/02/16 16:15:44;;;;;;;3.73;3.43;;;13.50;99.90;;;;;;4912588;29;20486;-67
2024/02/16 16:18:11;;;;;;;4.70;4.23;;;13.50;99.90;;;;;;4907523;29;20576;-67
2024/02/16 16:20:38;;;;;;;3.60;3.50;;;13.60;99.90;;;;;;4913775;29;20486;-70
2024/02/16 16:23:05;;;;;;;3.50;3.23;;;13.70;99.90;;;;;;4909774;29;20481;-70
2024/02/16 16:25:35;;;;;;;4.40;4.10;;;13.70;99.90;;;;;;4909979;29;20500;-70
2024/02/16 16:28:01;;;;;;;4.17;3.90;;;13.70;99.90;;;;;;4913232;29;20466;-70
2024/02/16 16:30:28;;;;;;;4.47;4.17;;;13.70;99.90;;;;;;4908769;29;20486;-69
2024/02/16 16:32:55;;;;;;;5.80;5.00;;;13.70;99.90;;;;;;4914621;29;20477;-69
2024/02/16 16:35:22;;;;;;;4.07;3.87;;;13.70;99.90;;;;;;4913626;29;20657;-70
2024/02/16 16:37:49;;;;;;;3.70;3.50;;;13.70;99.90;;;;;;4912885;29;20557;-70
2024/02/16 16:40:16;;;;;;;5.43;4.93;;;13.70;99.90;;;;;;4914755;29;20489;-68
2024/02/16 16:42:44;;;;;;;5.10;4.40;;;13.70;99.90;;;;;;4913919;29;20474;-69
2024/02/16 16:45:12;;;;;;;4.50;4.10;;;13.70;99.90;;;;;;4914837;29;20475;-69
2024/02/16 16:47:39;;;;;;;4.53;4.13;;;13.70;99.90;;;;;;4916129;29;20556;-68
2024/02/16 16:50:07;;;;;;;4.93;4.63;;;13.70;99.90;;;;;;4910662;29;20477;-71
2024/02/16 16:52:34;;;;;;;5.63;4.87;;;13.60;99.90;;;;;;4910480;29;21027;-68
2024/02/16 16:55:01;;;;;;;5.70;5.20;;;13.60;99.90;;;;;;4913516;29;20823;-68
2024/02/16 16:57:28;;;;;;;3.50;3.27;;;13.60;99.90;;;;;;4916105;29;20477;-68
2024/02/16 16:59:56;;;;;;;5.13;4.63;;;13.60;99.90;;;;;;4912502;29;20477;-68
2024/02/16 17:02:24;;;;;;;6.00;4.30;;;13.60;99.90;;;;;;4910843;29;20519;-69
2024/02/16 17:04:51;;;;;;;4.10;3.80;;;13.60;99.90;;;;;;4912721;29;20489;-68
2024/02/16 17:07:18;;;;;;;6.47;4.70;;;13.60;99.90;;;;;;4909397;29;20476;-69
2024/02/16 17:09:45;;;;;;;8.30;5.33;;;13.60;99.90;;;;;;4913481;29;20639;-69
2024/02/16 17:12:12;;;;;;;5.00;4.67;;;13.50;99.90;;;;;;4915851;29;20512;-69
2024/02/16 17:14:40;;;;;;;4.50;4.20;;;13.50;99.90;;;;;;4914900;29;20503;-69
2024/02/16 17:17:08;;;;;;;4.40;4.10;;;13.50;99.90;;;;;;4911065;29;20887;-68
2024/02/16 17:19:35;;;;;;;4.37;4.07;;;13.50;99.90;;;;;;4912346;29;20476;-68
2024/02/16 17:22:03;;;;;;;4.07;3.73;;;13.50;99.90;;;;;;4913746;29;20853;-69
2024/02/16 17:24:31;;;;;;;5.57;3.37;;;13.40;99.90;;;;;;4915774;29;20512;-69
2024/02/16 17:26:58;;;;;;;3.40;3.30;;;13.50;99.90;;;;;;4916232;29;20473;-69
2024/02/16 17:29:24;;;;;;;3.90;3.70;;;13.40;99.90;;;;;;4906931;29;20529;-69
2024/02/16 17:31:51;;;;;;;3.83;3.53;;;13.40;99.90;;;;;;4911278;29;21013;-69
2024/02/16 17:34:20;;;;;;;4.20;3.80;;;13.40;99.90;;;;;;4911054;29;20523;-69
2024/02/16 17:36:47;;;;;;;4.33;3.80;;;13.40;99.90;;;;;;4909991;29;20541;-69
2024/02/16 17:39:13;;;;;;;3.10;3.00;;;13.40;99.90;;;;;;4915344;29;20469;-69
2024/02/16 17:41:40;;;;;;;3.30;3.10;;;13.30;99.90;;;;;;4911380;29;20976;-69
2024/02/16 17:44:07;;;;;;;4.30;3.70;;;13.30;99.90;;;;;;4913915;29;20477;-70
2024/02/16 17:46:34;;;;;;;3.70;3.40;;;13.30;99.90;;;;;;4910898;29;20466;-69